Terminal Aerodrome Forecast
Issued by NWS Dallas/Fort Worth, TX

Home | Current Version | Previous Version | Text Only | Print | Product List | Glossary On
Versions: 1 2 3 4 5 6 7 8 9 10 11 12 13 14 15 16 17 18 19 20 21 22 23 24 25 26 27 28 29 30 31
185
FTUS44 KFWD 071126
TAFDFW
TAF
KDFW 071126Z 0712/0818 18008KT P6SM SKC
     FM072300 35012KT P6SM FEW300
     FM080600 33022KT P6SM SKC=

USA.gov is the U.S. government's official web portal to all federal, state and local government web resources and services.